sensor_id;sensor_type;location;lat;lon;timestamp;temperature;humidity
24041;DHT22;12246;47.612;18.906;2022-10-22T00:01:16;10.20;99.90
24041;DHT22;12246;47.612;18.906;2022-10-22T00:04:09;10.10;99.90
24041;DHT22;12246;47.612;18.906;2022-10-22T00:07:01;9.90;99.90
24041;DHT22;12246;47.612;18.906;2022-10-22T00:09:53;9.80;99.90
24041;DHT22;12246;47.612;18.906;2022-10-22T00:12:45;9.80;99.90
24041;DHT22;12246;47.612;18.906;2022-10-22T00:15:37;9.90;99.90
24041;DHT22;12246;47.612;18.906;2022-10-22T00:18:30;10.00;99.90
24041;DHT22;12246;47.612;18.906;2022-10-22T00:21:22;10.00;99.90
24041;DHT22;12246;47.612;18.906;2022-10-22T00:24:14;10.00;99.90
24041;DHT22;12246;47.612;18.906;2022-10-22T00:27:08;10.00;99.90
24041;DHT22;12246;47.612;18.906;2022-10-22T00:30:01;9.90;99.90
24041;DHT22;12246;47.612;18.906;2022-10-22T00:32:53;9.90;99.90
24041;DHT22;12246;47.612;18.906;2022-10-22T00:35:46;9.80;99.90
24041;DHT22;12246;47.612;18.906;2022-10-22T00:38:38;9.80;99.90
24041;DHT22;12246;47.612;18.906;2022-10-22T00:41:30;9.70;99.90
24041;DHT22;12246;47.612;18.906;2022-10-22T00:48:05;9.80;99.90
24041;DHT22;12246;47.612;18.906;2022-10-22T00:51:05;9.90;99.90
24041;DHT22;12246;47.612;18.906;2022-10-22T00:54:03;9.90;99.90
24041;DHT22;12246;47.612;18.906;2022-10-22T00:56:57;9.70;99.90
24041;DHT22;12246;47.612;18.906;2022-10-22T00:59:50;9.50;99.90
24041;DHT22;12246;47.612;18.906;2022-10-22T01:02:42;9.40;99.90
24041;DHT22;12246;47.612;18.906;2022-10-22T01:05:45;9.40;99.90
24041;DHT22;12246;47.612;18.906;2022-10-22T01:12:11;9.60;99.90
24041;DHT22;12246;47.612;18.906;2022-10-22T01:15:31;9.60;99.90
24041;DHT22;12246;47.612;18.906;2022-10-22T01:21:38;9.60;99.90
24041;DHT22;12246;47.612;18.906;2022-10-22T01:24:55;9.50;99.90
24041;DHT22;12246;47.612;18.906;2022-10-22T01:31:21;9.50;99.90
24041;DHT22;12246;47.612;18.906;2022-10-22T01:34:16;9.40;99.90
24041;DHT22;12246;47.612;18.906;2022-10-22T01:37:11;9.40;99.90
24041;DHT22;12246;47.612;18.906;2022-10-22T01:40:06;9.50;99.90
24041;DHT22;12246;47.612;18.906;2022-10-22T01:43:04;9.50;99.90
24041;DHT22;12246;47.612;18.906;2022-10-22T01:45:59;9.50;99.90
24041;DHT22;12246;47.612;18.906;2022-10-22T01:49:12;9.50;99.90
24041;DHT22;12246;47.612;18.906;2022-10-22T01:52:34;9.30;99.90
24041;DHT22;12246;47.612;18.906;2022-10-22T02:05:38;9.10;99.90
24041;DHT22;12246;47.612;18.906;2022-10-22T02:08:32;9.00;99.90
24041;DHT22;12246;47.612;18.906;2022-10-22T02:11:26;9.10;99.90
24041;DHT22;12246;47.612;18.906;2022-10-22T02:14:19;9.20;99.90
24041;DHT22;12246;47.612;18.906;2022-10-22T02:17:15;9.20;99.90
24041;DHT22;12246;47.612;18.906;2022-10-22T02:20:14;9.20;99.90
24041;DHT22;12246;47.612;18.906;2022-10-22T02:23:08;9.10;99.90
24041;DHT22;12246;47.612;18.906;2022-10-22T02:26:27;9.10;99.90
24041;DHT22;12246;47.612;18.906;2022-10-22T02:29:29;9.20;99.90
24041;DHT22;12246;47.612;18.906;2022-10-22T02:32:33;9.20;99.90
24041;DHT22;12246;47.612;18.906;2022-10-22T02:35:27;9.20;99.90
24041;DHT22;12246;47.612;18.906;2022-10-22T02:38:21;9.10;99.90
24041;DHT22;12246;47.612;18.906;2022-10-22T02:41:15;9.00;99.90
24041;DHT22;12246;47.612;18.906;2022-10-22T02:44:10;8.90;99.90
24041;DHT22;12246;47.612;18.906;2022-10-22T02:47:02;8.80;99.90
24041;DHT22;12246;47.612;18.906;2022-10-22T02:49:55;8.80;99.90
24041;DHT22;12246;47.612;18.906;2022-10-22T02:52:47;8.80;99.90
24041;DHT22;12246;47.612;18.906;2022-10-22T02:55:39;8.80;99.90
24041;DHT22;12246;47.612;18.906;2022-10-22T02:58:31;8.80;99.90
24041;DHT22;12246;47.612;18.906;2022-10-22T03:01:23;8.60;99.90
24041;DHT22;12246;47.612;18.906;2022-10-22T03:04:16;8.50;99.90
24041;DHT22;12246;47.612;18.906;2022-10-22T03:07:08;8.40;99.90
24041;DHT22;12246;47.612;18.906;2022-10-22T03:10:00;8.40;99.90
24041;DHT22;12246;47.612;18.906;2022-10-22T03:12:52;8.30;99.90
24041;DHT22;12246;47.612;18.906;2022-10-22T03:15:46;8.40;99.90
24041;DHT22;12246;47.612;18.906;2022-10-22T03:18:39;8.40;99.90
24041;DHT22;12246;47.612;18.906;2022-10-22T03:21:40;8.40;99.90
24041;DHT22;12246;47.612;18.906;2022-10-22T03:24:35;8.30;99.90
24041;DHT22;12246;47.612;18.906;2022-10-22T03:27:29;8.30;99.90
24041;DHT22;12246;47.612;18.906;2022-10-22T03:30:21;8.30;99.90
24041;DHT22;12246;47.612;18.906;2022-10-22T03:33:13;8.30;99.90
24041;DHT22;12246;47.612;18.906;2022-10-22T03:36:06;8.30;99.90
24041;DHT22;12246;47.612;18.906;2022-10-22T03:39:00;8.20;99.90
24041;DHT22;12246;47.612;18.906;2022-10-22T03:41:53;8.20;99.90
24041;DHT22;12246;47.612;18.906;2022-10-22T03:44:45;8.20;99.90
24041;DHT22;12246;47.612;18.906;2022-10-22T03:47:37;8.30;99.90
24041;DHT22;12246;47.612;18.906;2022-10-22T03:50:30;8.20;99.90
24041;DHT22;12246;47.612;18.906;2022-10-22T03:53:22;8.10;99.90
24041;DHT22;12246;47.612;18.906;2022-10-22T03:56:14;8.00;99.90
24041;DHT22;12246;47.612;18.906;2022-10-22T03:59:06;8.00;99.90
24041;DHT22;12246;47.612;18.906;2022-10-22T04:01:58;8.10;99.90
24041;DHT22;12246;47.612;18.906;2022-10-22T04:04:51;8.10;99.90
24041;DHT22;12246;47.612;18.906;2022-10-22T04:07:43;8.10;99.90
24041;DHT22;12246;47.612;18.906;2022-10-22T04:10:35;8.10;99.90
24041;DHT22;12246;47.612;18.906;2022-10-22T04:13:27;8.10;99.90
24041;DHT22;12246;47.612;18.906;2022-10-22T04:16:21;8.30;99.90
24041;DHT22;12246;47.612;18.906;2022-10-22T04:19:17;8.40;99.90
24041;DHT22;12246;47.612;18.906;2022-10-22T04:22:09;8.40;99.90
24041;DHT22;12246;47.612;18.906;2022-10-22T04:25:03;8.50;99.90
24041;DHT22;12246;47.612;18.906;2022-10-22T04:27:55;8.40;99.90
24041;DHT22;12246;47.612;18.906;2022-10-22T04:30:47;8.20;99.90
24041;DHT22;12246;47.612;18.906;2022-10-22T04:33:39;8.10;99.90
24041;DHT22;12246;47.612;18.906;2022-10-22T04:36:32;8.10;99.90
24041;DHT22;12246;47.612;18.906;2022-10-22T04:39:24;7.90;99.90
24041;DHT22;12246;47.612;18.906;2022-10-22T04:42:17;7.80;99.90
24041;DHT22;12246;47.612;18.906;2022-10-22T04:45:09;7.70;99.90
24041;DHT22;12246;47.612;18.906;2022-10-22T04:48:01;7.60;99.90
24041;DHT22;12246;47.612;18.906;2022-10-22T04:50:56;7.50;99.90
24041;DHT22;12246;47.612;18.906;2022-10-22T04:53:48;7.40;99.90
24041;DHT22;12246;47.612;18.906;2022-10-22T04:56:41;7.30;99.90
24041;DHT22;12246;47.612;18.906;2022-10-22T04:59:33;7.30;99.90
24041;DHT22;12246;47.612;18.906;2022-10-22T05:02:25;7.20;99.90
24041;DHT22;12246;47.612;18.906;2022-10-22T05:05:17;7.20;99.90
24041;DHT22;12246;47.612;18.906;2022-10-22T05:08:09;7.20;99.90
24041;DHT22;12246;47.612;18.906;2022-10-22T05:11:14;7.10;99.90
24041;DHT22;12246;47.612;18.906;2022-10-22T05:14:07;7.20;99.90
24041;DHT22;12246;47.612;18.906;2022-10-22T05:17:00;7.20;99.90
24041;DHT22;12246;47.612;18.906;2022-10-22T05:19:53;7.20;99.90
24041;DHT22;12246;47.612;18.906;2022-10-22T05:22:45;7.10;99.90
24041;DHT22;12246;47.612;18.906;2022-10-22T05:25:37;7.00;99.90
24041;DHT22;12246;47.612;18.906;2022-10-22T05:28:30;7.00;99.90
24041;DHT22;12246;47.612;18.906;2022-10-22T05:31:23;7.10;99.90
24041;DHT22;12246;47.612;18.906;2022-10-22T05:34:16;7.30;99.90
24041;DHT22;12246;47.612;18.906;2022-10-22T05:37:08;7.50;99.90
24041;DHT22;12246;47.612;18.906;2022-10-22T05:40:00;7.50;99.90
24041;DHT22;12246;47.612;18.906;2022-10-22T05:43:12;7.40;99.90
24041;DHT22;12246;47.612;18.906;2022-10-22T05:46:07;7.40;99.90
24041;DHT22;12246;47.612;18.906;2022-10-22T05:49:01;7.50;99.90
24041;DHT22;12246;47.612;18.906;2022-10-22T05:51:54;7.70;99.90
24041;DHT22;12246;47.612;18.906;2022-10-22T05:54:46;7.70;99.90
24041;DHT22;12246;47.612;18.906;2022-10-22T05:57:39;7.80;99.90
24041;DHT22;12246;47.612;18.906;2022-10-22T06:00:31;7.70;99.90
24041;DHT22;12246;47.612;18.906;2022-10-22T06:03:25;7.80;99.90
24041;DHT22;12246;47.612;18.906;2022-10-22T06:06:33;8.00;99.90
24041;DHT22;12246;47.612;18.906;2022-10-22T06:09:29;8.00;99.90
24041;DHT22;12246;47.612;18.906;2022-10-22T06:12:22;8.10;99.90
24041;DHT22;12246;47.612;18.906;2022-10-22T06:15:16;8.10;99.90
24041;DHT22;12246;47.612;18.906;2022-10-22T06:18:09;8.10;99.90
24041;DHT22;12246;47.612;18.906;2022-10-22T06:21:11;8.20;99.90
24041;DHT22;12246;47.612;18.906;2022-10-22T06:24:10;8.20;99.90
24041;DHT22;12246;47.612;18.906;2022-10-22T06:27:02;8.50;99.90
24041;DHT22;12246;47.612;18.906;2022-10-22T06:29:55;9.00;99.90
24041;DHT22;12246;47.612;18.906;2022-10-22T06:32:47;9.40;99.90
24041;DHT22;12246;47.612;18.906;2022-10-22T06:35:39;9.80;99.90
24041;DHT22;12246;47.612;18.906;2022-10-22T06:38:31;10.10;99.90
24041;DHT22;12246;47.612;18.906;2022-10-22T06:41:23;10.30;99.90
24041;DHT22;12246;47.612;18.906;2022-10-22T06:44:20;10.50;99.90
24041;DHT22;12246;47.612;18.906;2022-10-22T06:47:12;10.90;99.90
24041;DHT22;12246;47.612;18.906;2022-10-22T06:50:05;11.30;99.90
24041;DHT22;12246;47.612;18.906;2022-10-22T06:52:57;11.40;99.90
24041;DHT22;12246;47.612;18.906;2022-10-22T06:55:49;11.80;99.90
24041;DHT22;12246;47.612;18.906;2022-10-22T06:58:42;11.90;99.90
24041;DHT22;12246;47.612;18.906;2022-10-22T07:01:34;11.70;99.90
24041;DHT22;12246;47.612;18.906;2022-10-22T07:04:27;11.10;99.90
24041;DHT22;12246;47.612;18.906;2022-10-22T07:07:19;10.60;99.90
24041;DHT22;12246;47.612;18.906;2022-10-22T07:10:11;10.60;99.90
24041;DHT22;12246;47.612;18.906;2022-10-22T07:13:03;10.30;99.90
24041;DHT22;12246;47.612;18.906;2022-10-22T07:15:55;10.30;99.90
24041;DHT22;12246;47.612;18.906;2022-10-22T07:18:48;10.30;99.90
24041;DHT22;12246;47.612;18.906;2022-10-22T07:21:40;10.30;99.90
24041;DHT22;12246;47.612;18.906;2022-10-22T07:24:32;10.30;99.90
24041;DHT22;12246;47.612;18.906;2022-10-22T07:27:24;10.40;99.90
24041;DHT22;12246;47.612;18.906;2022-10-22T07:30:17;10.50;99.90
24041;DHT22;12246;47.612;18.906;2022-10-22T07:33:09;10.90;99.90
24041;DHT22;12246;47.612;18.906;2022-10-22T07:36:03;11.40;99.90
24041;DHT22;12246;47.612;18.906;2022-10-22T07:38:58;12.20;99.90
24041;DHT22;12246;47.612;18.906;2022-10-22T07:41:50;12.70;99.90
24041;DHT22;12246;47.612;18.906;2022-10-22T07:44:43;13.30;99.90
24041;DHT22;12246;47.612;18.906;2022-10-22T07:47:35;13.60;99.90
24041;DHT22;12246;47.612;18.906;2022-10-22T07:50:27;13.50;99.90
24041;DHT22;12246;47.612;18.906;2022-10-22T07:53:20;13.70;99.90
24041;DHT22;12246;47.612;18.906;2022-10-22T07:56:12;14.50;99.90
24041;DHT22;12246;47.612;18.906;2022-10-22T07:59:04;15.10;99.90
24041;DHT22;12246;47.612;18.906;2022-10-22T08:01:57;15.50;99.90
24041;DHT22;12246;47.612;18.906;2022-10-22T08:04:49;15.80;99.90
24041;DHT22;12246;47.612;18.906;2022-10-22T08:07:41;16.10;99.90
24041;DHT22;12246;47.612;18.906;2022-10-22T08:10:33;16.20;99.90
24041;DHT22;12246;47.612;18.906;2022-10-22T08:13:26;16.40;99.90
24041;DHT22;12246;47.612;18.906;2022-10-22T08:16:21;16.30;99.90
24041;DHT22;12246;47.612;18.906;2022-10-22T08:19:13;16.20;99.90
24041;DHT22;12246;47.612;18.906;2022-10-22T08:22:09;16.10;99.90
24041;DHT22;12246;47.612;18.906;2022-10-22T08:25:02;16.00;99.90
24041;DHT22;12246;47.612;18.906;2022-10-22T08:27:54;15.90;99.90
24041;DHT22;12246;47.612;18.906;2022-10-22T08:30:46;15.80;99.90
24041;DHT22;12246;47.612;18.906;2022-10-22T08:33:39;15.60;99.90
24041;DHT22;12246;47.612;18.906;2022-10-22T08:36:32;15.30;99.90
24041;DHT22;12246;47.612;18.906;2022-10-22T08:39:25;15.00;99.90
24041;DHT22;12246;47.612;18.906;2022-10-22T08:49:01;14.80;99.90
24041;DHT22;12246;47.612;18.906;2022-10-22T08:51:56;14.90;99.90
24041;DHT22;12246;47.612;18.906;2022-10-22T08:54:59;14.70;99.90
24041;DHT22;12246;47.612;18.906;2022-10-22T09:01:21;14.60;99.90
24041;DHT22;12246;47.612;18.906;2022-10-22T09:04:17;14.50;99.90
24041;DHT22;12246;47.612;18.906;2022-10-22T09:07:13;14.30;99.90
24041;DHT22;12246;47.612;18.906;2022-10-22T09:10:07;14.30;99.90
24041;DHT22;12246;47.612;18.906;2022-10-22T09:13:00;14.40;99.90
24041;DHT22;12246;47.612;18.906;2022-10-22T09:15:59;14.40;99.90
24041;DHT22;12246;47.612;18.906;2022-10-22T09:28:08;14.30;99.90
24041;DHT22;12246;47.612;18.906;2022-10-22T09:31:00;14.50;99.90
24041;DHT22;12246;47.612;18.906;2022-10-22T09:33:52;14.60;99.90
24041;DHT22;12246;47.612;18.906;2022-10-22T09:36:45;14.70;99.90
24041;DHT22;12246;47.612;18.906;2022-10-22T09:39:50;14.80;99.90
24041;DHT22;12246;47.612;18.906;2022-10-22T09:42:43;14.80;99.90
24041;DHT22;12246;47.612;18.906;2022-10-22T09:45:36;14.80;99.90
24041;DHT22;12246;47.612;18.906;2022-10-22T09:48:32;14.90;99.90
24041;DHT22;12246;47.612;18.906;2022-10-22T09:57:23;15.10;99.90
24041;DHT22;12246;47.612;18.906;2022-10-22T10:00:17;14.90;99.90
24041;DHT22;12246;47.612;18.906;2022-10-22T10:03:19;14.80;99.90
24041;DHT22;12246;47.612;18.906;2022-10-22T10:06:11;14.70;99.90
24041;DHT22;12246;47.612;18.906;2022-10-22T10:09:17;14.70;99.90
24041;DHT22;12246;47.612;18.906;2022-10-22T10:16:03;14.80;99.90
24041;DHT22;12246;47.612;18.906;2022-10-22T10:31:42;14.80;99.90
24041;DHT22;12246;47.612;18.906;2022-10-22T10:40:56;15.10;99.90
24041;DHT22;12246;47.612;18.906;2022-10-22T10:44:14;15.20;99.90
24041;DHT22;12246;47.612;18.906;2022-10-22T10:50:39;15.20;99.90
24041;DHT22;12246;47.612;18.906;2022-10-22T10:56:57;15.40;99.90
24041;DHT22;12246;47.612;18.906;2022-10-22T11:06:45;15.30;99.90
24041;DHT22;12246;47.612;18.906;2022-10-22T11:09:49;15.40;99.90
24041;DHT22;12246;47.612;18.906;2022-10-22T11:12:46;15.30;99.90
24041;DHT22;12246;47.612;18.906;2022-10-22T11:15:47;15.20;99.90
24041;DHT22;12246;47.612;18.906;2022-10-22T11:18:46;15.10;99.90
24041;DHT22;12246;47.612;18.906;2022-10-22T11:25:02;14.80;99.90
24041;DHT22;12246;47.612;18.906;2022-10-22T11:28:00;14.40;99.90
24041;DHT22;12246;47.612;18.906;2022-10-22T11:31:07;14.40;99.90
24041;DHT22;12246;47.612;18.906;2022-10-22T11:37:27;14.50;99.90
24041;DHT22;12246;47.612;18.906;2022-10-22T11:43:35;14.40;99.90
24041;DHT22;12246;47.612;18.906;2022-10-22T11:49:45;14.60;99.90
24041;DHT22;12246;47.612;18.906;2022-10-22T11:55:48;14.80;99.90
24041;DHT22;12246;47.612;18.906;2022-10-22T11:58:42;14.90;99.90
24041;DHT22;12246;47.612;18.906;2022-10-22T12:01:43;14.90;99.90
24041;DHT22;12246;47.612;18.906;2022-10-22T12:04:40;15.00;99.90
24041;DHT22;12246;47.612;18.906;2022-10-22T12:07:33;15.00;99.90
24041;DHT22;12246;47.612;18.906;2022-10-22T12:22:51;15.90;99.90
24041;DHT22;12246;47.612;18.906;2022-10-22T12:25:43;15.90;99.90
24041;DHT22;12246;47.612;18.906;2022-10-22T12:28:39;15.90;99.90
24041;DHT22;12246;47.612;18.906;2022-10-22T12:31:36;15.80;99.90
24041;DHT22;12246;47.612;18.906;2022-10-22T12:34:29;15.90;99.90
24041;DHT22;12246;47.612;18.906;2022-10-22T12:37:21;15.80;99.90
24041;DHT22;12246;47.612;18.906;2022-10-22T12:40:26;15.70;99.90
24041;DHT22;12246;47.612;18.906;2022-10-22T12:43:27;15.80;99.90
24041;DHT22;12246;47.612;18.906;2022-10-22T12:46:19;15.70;99.90
24041;DHT22;12246;47.612;18.906;2022-10-22T12:49:21;15.70;99.90
24041;DHT22;12246;47.612;18.906;2022-10-22T12:52:21;15.80;99.90
24041;DHT22;12246;47.612;18.906;2022-10-22T12:55:18;15.80;99.90
24041;DHT22;12246;47.612;18.906;2022-10-22T12:58:17;15.80;99.90
24041;DHT22;12246;47.612;18.906;2022-10-22T13:01:12;15.80;99.90
24041;DHT22;12246;47.612;18.906;2022-10-22T13:04:20;15.70;99.90
24041;DHT22;12246;47.612;18.906;2022-10-22T13:10:18;15.70;99.90
24041;DHT22;12246;47.612;18.906;2022-10-22T13:13:29;15.70;99.90
24041;DHT22;12246;47.612;18.906;2022-10-22T13:16:23;15.70;99.90
24041;DHT22;12246;47.612;18.906;2022-10-22T13:22:50;15.80;99.90
24041;DHT22;12246;47.612;18.906;2022-10-22T13:25:43;15.80;99.90
24041;DHT22;12246;47.612;18.906;2022-10-22T13:28:51;15.80;99.90
24041;DHT22;12246;47.612;18.906;2022-10-22T13:31:48;15.70;99.90
24041;DHT22;12246;47.612;18.906;2022-10-22T13:34:43;15.70;99.90
24041;DHT22;12246;47.612;18.906;2022-10-22T13:37:35;15.70;99.90
24041;DHT22;12246;47.612;18.906;2022-10-22T13:40:29;15.50;99.90
24041;DHT22;12246;47.612;18.906;2022-10-22T13:43:22;15.40;99.90
24041;DHT22;12246;47.612;18.906;2022-10-22T13:46:14;15.40;99.90
24041;DHT22;12246;47.612;18.906;2022-10-22T13:49:19;15.50;99.90
24041;DHT22;12246;47.612;18.906;2022-10-22T13:52:49;15.50;99.90
24041;DHT22;12246;47.612;18.906;2022-10-22T13:55:39;15.40;99.90
24041;DHT22;12246;47.612;18.906;2022-10-22T13:58:31;15.30;99.90
24041;DHT22;12246;47.612;18.906;2022-10-22T14:01:27;15.30;99.90
24041;DHT22;12246;47.612;18.906;2022-10-22T14:04:19;15.30;99.90
24041;DHT22;12246;47.612;18.906;2022-10-22T14:07:15;15.30;99.90
24041;DHT22;12246;47.612;18.906;2022-10-22T14:10:19;15.30;99.90
24041;DHT22;12246;47.612;18.906;2022-10-22T14:13:13;15.10;99.90
24041;DHT22;12246;47.612;18.906;2022-10-22T14:16:06;15.00;99.90
24041;DHT22;12246;47.612;18.906;2022-10-22T14:19:00;14.90;99.90
24041;DHT22;12246;47.612;18.906;2022-10-22T14:21:52;14.80;99.90
24041;DHT22;12246;47.612;18.906;2022-10-22T14:24:45;14.80;99.90
24041;DHT22;12246;47.612;18.906;2022-10-22T14:27:37;14.80;99.90
24041;DHT22;12246;47.612;18.906;2022-10-22T14:30:30;14.70;99.90
24041;DHT22;12246;47.612;18.906;2022-10-22T14:33:29;14.70;99.90
24041;DHT22;12246;47.612;18.906;2022-10-22T14:36:23;14.60;99.90
24041;DHT22;12246;47.612;18.906;2022-10-22T14:39:15;14.70;99.90
24041;DHT22;12246;47.612;18.906;2022-10-22T14:42:13;14.50;99.90
24041;DHT22;12246;47.612;18.906;2022-10-22T14:45:17;14.30;99.90
24041;DHT22;12246;47.612;18.906;2022-10-22T14:48:09;14.10;99.90
24041;DHT22;12246;47.612;18.906;2022-10-22T14:51:01;14.10;99.90
24041;DHT22;12246;47.612;18.906;2022-10-22T14:53:53;13.90;99.90
24041;DHT22;12246;47.612;18.906;2022-10-22T14:56:45;13.90;99.90
24041;DHT22;12246;47.612;18.906;2022-10-22T14:59:38;13.70;99.90
24041;DHT22;12246;47.612;18.906;2022-10-22T15:02:30;13.60;99.90
24041;DHT22;12246;47.612;18.906;2022-10-22T15:05:22;13.50;99.90
24041;DHT22;12246;47.612;18.906;2022-10-22T15:08:14;13.40;99.90
24041;DHT22;12246;47.612;18.906;2022-10-22T15:11:09;13.40;99.90
24041;DHT22;12246;47.612;18.906;2022-10-22T15:14:01;13.30;99.90
24041;DHT22;12246;47.612;18.906;2022-10-22T15:16:54;13.20;99.90
24041;DHT22;12246;47.612;18.906;2022-10-22T15:19:46;13.00;99.90
24041;DHT22;12246;47.612;18.906;2022-10-22T15:22:38;12.90;99.90
24041;DHT22;12246;47.612;18.906;2022-10-22T15:25:31;12.70;99.90
24041;DHT22;12246;47.612;18.906;2022-10-22T15:28:24;12.60;99.90
24041;DHT22;12246;47.612;18.906;2022-10-22T15:31:46;12.50;99.90
24041;DHT22;12246;47.612;18.906;2022-10-22T15:34:39;12.30;99.90
24041;DHT22;12246;47.612;18.906;2022-10-22T15:37:31;12.20;99.90
24041;DHT22;12246;47.612;18.906;2022-10-22T15:40:24;12.20;99.90
24041;DHT22;12246;47.612;18.906;2022-10-22T15:43:16;12.10;99.90
24041;DHT22;12246;47.612;18.906;2022-10-22T15:46:14;12.00;99.90
24041;DHT22;12246;47.612;18.906;2022-10-22T15:49:07;12.00;99.90
24041;DHT22;12246;47.612;18.906;2022-10-22T15:51:59;12.00;99.90
24041;DHT22;12246;47.612;18.906;2022-10-22T15:54:51;12.00;99.90
24041;DHT22;12246;47.612;18.906;2022-10-22T15:57:45;11.90;99.90
24041;DHT22;12246;47.612;18.906;2022-10-22T16:00:38;11.90;99.90
24041;DHT22;12246;47.612;18.906;2022-10-22T16:03:30;11.90;99.90
24041;DHT22;12246;47.612;18.906;2022-10-22T16:06:35;11.80;99.90
24041;DHT22;12246;47.612;18.906;2022-10-22T16:09:27;11.70;99.90
24041;DHT22;12246;47.612;18.906;2022-10-22T16:12:20;11.70;99.90
24041;DHT22;12246;47.612;18.906;2022-10-22T16:15:12;11.60;99.90
24041;DHT22;12246;47.612;18.906;2022-10-22T16:18:04;11.60;99.90
24041;DHT22;12246;47.612;18.906;2022-10-22T16:20:56;11.50;99.90
24041;DHT22;12246;47.612;18.906;2022-10-22T16:23:49;11.50;99.90
24041;DHT22;12246;47.612;18.906;2022-10-22T16:26:41;11.40;99.90
24041;DHT22;12246;47.612;18.906;2022-10-22T16:29:36;11.40;99.90
24041;DHT22;12246;47.612;18.906;2022-10-22T16:32:28;11.40;99.90
24041;DHT22;12246;47.612;18.906;2022-10-22T16:35:20;11.30;99.90
24041;DHT22;12246;47.612;18.906;2022-10-22T16:38:12;11.40;99.90
24041;DHT22;12246;47.612;18.906;2022-10-22T16:41:15;11.40;99.90
24041;DHT22;12246;47.612;18.906;2022-10-22T16:44:09;11.50;99.90
24041;DHT22;12246;47.612;18.906;2022-10-22T16:47:01;11.60;99.90
24041;DHT22;12246;47.612;18.906;2022-10-22T16:49:53;11.80;99.90
24041;DHT22;12246;47.612;18.906;2022-10-22T16:52:45;11.80;99.90
24041;DHT22;12246;47.612;18.906;2022-10-22T16:55:38;11.90;99.90
24041;DHT22;12246;47.612;18.906;2022-10-22T16:58:30;11.90;99.90
24041;DHT22;12246;47.612;18.906;2022-10-22T17:01:24;11.80;99.90
24041;DHT22;12246;47.612;18.906;2022-10-22T17:04:17;11.80;99.90
24041;DHT22;12246;47.612;18.906;2022-10-22T17:07:09;11.90;99.90
24041;DHT22;12246;47.612;18.906;2022-10-22T17:10:01;11.90;99.90
24041;DHT22;12246;47.612;18.906;2022-10-22T17:12:54;12.00;99.90
24041;DHT22;12246;47.612;18.906;2022-10-22T17:15:46;12.00;99.90
24041;DHT22;12246;47.612;18.906;2022-10-22T17:18:39;12.00;99.90
24041;DHT22;12246;47.612;18.906;2022-10-22T17:21:32;12.10;99.90
24041;DHT22;12246;47.612;18.906;2022-10-22T17:24:25;12.10;99.90
24041;DHT22;12246;47.612;18.906;2022-10-22T17:27:17;12.00;99.90
24041;DHT22;12246;47.612;18.906;2022-10-22T17:30:13;12.10;99.90
24041;DHT22;12246;47.612;18.906;2022-10-22T17:33:09;12.00;99.90
24041;DHT22;12246;47.612;18.906;2022-10-22T17:36:04;12.00;99.90
24041;DHT22;12246;47.612;18.906;2022-10-22T17:38:59;12.10;99.90
24041;DHT22;12246;47.612;18.906;2022-10-22T17:41:51;12.10;99.90
24041;DHT22;12246;47.612;18.906;2022-10-22T17:44:44;12.00;99.90
24041;DHT22;12246;47.612;18.906;2022-10-22T17:47:36;12.00;99.90
24041;DHT22;12246;47.612;18.906;2022-10-22T17:50:28;12.00;99.90
24041;DHT22;12246;47.612;18.906;2022-10-22T17:53:20;12.10;99.90
24041;DHT22;12246;47.612;18.906;2022-10-22T17:56:15;12.00;99.90
24041;DHT22;12246;47.612;18.906;2022-10-22T17:59:11;11.90;99.90
24041;DHT22;12246;47.612;18.906;2022-10-22T18:02:03;12.00;99.90
24041;DHT22;12246;47.612;18.906;2022-10-22T18:04:56;11.90;99.90
24041;DHT22;12246;47.612;18.906;2022-10-22T18:07:48;11.80;99.90
24041;DHT22;12246;47.612;18.906;2022-10-22T18:10:40;11.80;99.90
24041;DHT22;12246;47.612;18.906;2022-10-22T18:13:33;11.80;99.90
24041;DHT22;12246;47.612;18.906;2022-10-22T18:16:25;11.80;99.90
24041;DHT22;12246;47.612;18.906;2022-10-22T18:19:20;11.70;99.90
24041;DHT22;12246;47.612;18.906;2022-10-22T18:22:14;11.70;99.90
24041;DHT22;12246;47.612;18.906;2022-10-22T18:25:06;11.70;99.90
24041;DHT22;12246;47.612;18.906;2022-10-22T18:27:59;11.70;99.90
24041;DHT22;12246;47.612;18.906;2022-10-22T18:30:51;11.70;99.90
24041;DHT22;12246;47.612;18.906;2022-10-22T18:33:43;11.70;99.90
24041;DHT22;12246;47.612;18.906;2022-10-22T18:36:36;11.70;99.90
24041;DHT22;12246;47.612;18.906;2022-10-22T18:39:28;11.70;99.90
24041;DHT22;12246;47.612;18.906;2022-10-22T18:42:20;11.60;99.90
24041;DHT22;12246;47.612;18.906;2022-10-22T18:45:12;11.60;99.90
24041;DHT22;12246;47.612;18.906;2022-10-22T18:48:05;11.50;99.90
24041;DHT22;12246;47.612;18.906;2022-10-22T18:50:59;11.40;99.90
24041;DHT22;12246;47.612;18.906;2022-10-22T18:53:52;11.40;99.90
24041;DHT22;12246;47.612;18.906;2022-10-22T18:57:07;11.30;99.90
24041;DHT22;12246;47.612;18.906;2022-10-22T19:00:00;11.30;99.90
24041;DHT22;12246;47.612;18.906;2022-10-22T19:02:52;11.20;99.90
24041;DHT22;12246;47.612;18.906;2022-10-22T19:05:50;11.20;99.90
24041;DHT22;12246;47.612;18.906;2022-10-22T19:08:46;11.20;99.90
24041;DHT22;12246;47.612;18.906;2022-10-22T19:11:43;11.20;99.90
24041;DHT22;12246;47.612;18.906;2022-10-22T19:14:36;11.20;99.90
24041;DHT22;12246;47.612;18.906;2022-10-22T19:17:28;11.20;99.90
24041;DHT22;12246;47.612;18.906;2022-10-22T19:20:21;11.10;99.90
24041;DHT22;12246;47.612;18.906;2022-10-22T19:23:13;11.10;99.90
24041;DHT22;12246;47.612;18.906;2022-10-22T19:26:14;11.00;99.90
24041;DHT22;12246;47.612;18.906;2022-10-22T19:29:07;11.00;99.90
24041;DHT22;12246;47.612;18.906;2022-10-22T19:31:59;10.90;99.90
24041;DHT22;12246;47.612;18.906;2022-10-22T19:34:51;10.60;99.90
24041;DHT22;12246;47.612;18.906;2022-10-22T19:37:43;10.40;99.90
24041;DHT22;12246;47.612;18.906;2022-10-22T19:40:42;10.30;99.90
24041;DHT22;12246;47.612;18.906;2022-10-22T19:43:34;10.20;99.90
24041;DHT22;12246;47.612;18.906;2022-10-22T19:46:28;10.20;99.90
24041;DHT22;12246;47.612;18.906;2022-10-22T19:49:21;10.20;99.90
24041;DHT22;12246;47.612;18.906;2022-10-22T19:52:14;10.10;99.90
24041;DHT22;12246;47.612;18.906;2022-10-22T19:55:06;10.10;99.90
24041;DHT22;12246;47.612;18.906;2022-10-22T19:58:00;10.10;99.90
24041;DHT22;12246;47.612;18.906;2022-10-22T20:00:53;10.10;99.90
24041;DHT22;12246;47.612;18.906;2022-10-22T20:03:45;10.10;99.90
24041;DHT22;12246;47.612;18.906;2022-10-22T20:06:38;10.10;99.90
24041;DHT22;12246;47.612;18.906;2022-10-22T20:09:30;10.10;99.90
24041;DHT22;12246;47.612;18.906;2022-10-22T20:12:22;10.10;99.90